Time;durP1;ratioP1;P1;durP2;ratioP2;P2;SDS_P1;SDS_P2;PMS_P1;PMS_P2;Temp;Humidity;BMP_temperature;BMP_pressure;BME280_temperature;BME280_humidity;BME280_pressure;Samples;Min_cycle;Max_cycle;Signal;HPM_P1;HPM_P2
2023/08/27 00:00:46;;;;;;;5.93;2.40;;;17.80;99.90;;;;;;5074430;28;20432;-84
2023/08/27 00:03:13;;;;;;;4.53;3.40;;;17.80;99.90;;;;;;5074336;28;20509;-84
2023/08/27 00:05:44;;;;;;;6.93;3.37;;;17.80;99.90;;;;;;5074070;28;20514;-84
2023/08/27 00:08:11;;;;;;;4.57;2.90;;;17.80;99.90;;;;;;5074291;28;20789;-85
2023/08/27 00:10:40;;;;;;;5.90;3.43;;;17.80;99.90;;;;;;5073414;28;20490;-85
2023/08/27 00:13:07;;;;;;;5.63;3.77;;;17.80;99.90;;;;;;5074014;28;20468;-85
2023/08/27 00:15:34;;;;;;;5.13;3.03;;;17.80;99.90;;;;;;5074204;28;20448;-86
2023/08/27 00:18:03;;;;;;;5.70;3.23;;;17.80;99.90;;;;;;5073689;28;21007;-85
2023/08/27 00:20:33;;;;;;;5.43;3.20;;;17.80;99.90;;;;;;5073672;28;20445;-85
2023/08/27 00:23:00;;;;;;;4.40;3.30;;;17.80;99.90;;;;;;5073734;28;20429;-85
2023/08/27 00:25:27;;;;;;;5.33;3.17;;;17.80;99.90;;;;;;5073682;28;20433;-85
2023/08/27 00:27:56;;;;;;;4.50;3.33;;;17.80;99.90;;;;;;5073882;28;20436;-84
2023/08/27 00:30:23;;;;;;;5.70;2.77;;;17.70;99.90;;;;;;5073645;28;20433;-85
2023/08/27 00:32:50;;;;;;;4.90;2.70;;;17.80;99.90;;;;;;5073248;28;20579;-86
2023/08/27 00:35:17;;;;;;;5.37;3.90;;;17.80;99.90;;;;;;5073613;28;20494;-86
2023/08/27 00:37:44;;;;;;;3.87;2.83;;;17.90;99.90;;;;;;5073805;28;20440;-84
2023/08/27 00:40:11;;;;;;;6.57;2.93;;;17.90;99.90;;;;;;5073933;28;20436;-85
2023/08/27 00:42:38;;;;;;;5.60;3.40;;;17.90;99.90;;;;;;5073761;28;20494;-85
2023/08/27 00:45:11;;;;;;;5.50;3.70;;;17.90;99.90;;;;;;5073597;28;20498;-84
2023/08/27 00:47:39;;;;;;;5.20;3.07;;;17.90;99.90;;;;;;5073751;28;20486;-84
2023/08/27 00:50:13;;;;;;;4.97;3.13;;;17.90;99.90;;;;;;5073658;28;20444;-84
2023/08/27 00:52:40;;;;;;;4.67;2.93;;;17.90;99.90;;;;;;5073253;28;20517;-84
2023/08/27 00:55:08;;;;;;;5.63;3.50;;;17.90;99.90;;;;;;5073298;28;20498;-84
2023/08/27 00:57:37;;;;;;;4.87;3.20;;;17.90;99.90;;;;;;5073081;28;20466;-84
2023/08/27 01:00:05;;;;;;;5.30;3.80;;;17.90;99.90;;;;;;5073344;28;20969;-85
2023/08/27 01:02:35;;;;;;;5.00;2.80;;;17.90;99.90;;;;;;5073319;28;20456;-85
2023/08/27 01:05:02;;;;;;;3.70;2.90;;;17.90;99.90;;;;;;5073524;28;20464;-86
2023/08/27 01:07:37;;;;;;;5.67;3.27;;;17.90;99.90;;;;;;5073206;28;20433;-87
2023/08/27 01:10:11;;;;;;;5.97;3.70;;;17.90;99.90;;;;;;5073109;28;20452;-87
2023/08/27 01:12:49;;;;;;;5.37;3.47;;;17.90;99.90;;;;;;5073381;28;20468;-87
2023/08/27 01:15:21;;;;;;;6.63;2.60;;;17.90;99.90;;;;;;5073530;28;20528;-87
2023/08/27 01:17:51;;;;;;;7.37;3.70;;;17.90;99.90;;;;;;5073297;28;20504;-86
2023/08/27 01:20:20;;;;;;;4.50;3.00;;;17.90;99.90;;;;;;5073042;28;20428;-85
2023/08/27 01:22:48;;;;;;;6.03;3.93;;;18.00;99.90;;;;;;5074776;28;20437;-85
2023/08/27 01:25:19;;;;;;;4.03;3.20;;;18.00;99.90;;;;;;5077441;28;20836;-84
2023/08/27 01:27:52;;;;;;;4.90;3.03;;;18.10;99.90;;;;;;5077400;28;20412;-85
2023/08/27 01:30:24;;;;;;;5.50;2.93;;;18.00;99.90;;;;;;5077734;28;20470;-85
2023/08/27 01:32:59;;;;;;;8.03;3.83;;;18.00;99.90;;;;;;5077269;28;20467;-86
2023/08/27 01:35:27;;;;;;;7.03;3.60;;;18.00;99.90;;;;;;5077345;28;20456;-85
2023/08/27 01:37:56;;;;;;;4.07;3.00;;;18.00;99.90;;;;;;5076941;28;20511;-85
2023/08/27 01:40:23;;;;;;;5.50;3.87;;;18.00;99.90;;;;;;5077208;28;20437;-85
2023/08/27 01:42:50;;;;;;;4.53;3.67;;;18.00;99.90;;;;;;5076782;28;20436;-85
2023/08/27 01:45:18;;;;;;;8.70;4.30;;;18.00;99.90;;;;;;5076795;28;20914;-85
2023/08/27 01:47:45;;;;;;;4.13;3.20;;;18.00;99.90;;;;;;5073098;28;20493;-85
2023/08/27 01:50:12;;;;;;;5.00;4.10;;;18.00;99.90;;;;;;5056923;28;20448;-85
2023/08/27 01:52:44;;;;;;;5.70;3.50;;;18.00;99.90;;;;;;5056860;28;20530;-85
2023/08/27 01:55:13;;;;;;;7.10;4.10;;;18.00;99.90;;;;;;5056549;28;20458;-85
2023/08/27 01:57:41;;;;;;;5.30;3.37;;;18.00;99.90;;;;;;5056384;28;20468;-85
2023/08/27 02:00:10;;;;;;;4.97;3.93;;;18.00;99.90;;;;;;5056401;28;20483;-85
2023/08/27 02:02:38;;;;;;;9.93;4.20;;;18.00;99.90;;;;;;5056646;28;20444;-84
2023/08/27 02:05:06;;;;;;;5.10;3.30;;;18.00;99.90;;;;;;5056547;28;20494;-85
2023/08/27 02:07:36;;;;;;;6.93;4.30;;;18.00;99.90;;;;;;5056560;28;20506;-85
2023/08/27 02:10:03;;;;;;;5.03;3.70;;;18.10;99.90;;;;;;5056111;28;20470;-83
2023/08/27 02:12:32;;;;;;;5.40;3.40;;;18.10;99.90;;;;;;5056369;28;20472;-84
2023/08/27 02:14:59;;;;;;;5.13;3.47;;;18.10;99.90;;;;;;5056402;28;20487;-84
2023/08/27 02:17:26;;;;;;;6.03;3.10;;;18.10;99.90;;;;;;5055992;28;20491;-83
2023/08/27 02:19:53;;;;;;;6.00;3.90;;;18.10;99.90;;;;;;5055653;28;20475;-83
2023/08/27 02:22:20;;;;;;;5.80;3.17;;;18.00;99.90;;;;;;5056068;28;20445;-83
2023/08/27 02:24:47;;;;;;;4.63;3.07;;;18.00;99.90;;;;;;5056317;28;20437;-84
2023/08/27 02:27:14;;;;;;;4.90;3.73;;;18.10;99.90;;;;;;5056315;28;20830;-83
2023/08/27 02:29:43;;;;;;;6.20;3.40;;;18.00;99.90;;;;;;5055836;28;20437;-84
2023/08/27 02:32:10;;;;;;;7.03;3.00;;;18.00;99.90;;;;;;5055875;28;21033;-84
2023/08/27 02:34:38;;;;;;;5.63;3.43;;;18.00;99.90;;;;;;5055000;28;20433;-84
2023/08/27 02:37:09;;;;;;;5.33;3.20;;;18.00;99.90;;;;;;5055680;28;20444;-84
2023/08/27 02:39:36;;;;;;;4.90;4.13;;;18.00;99.90;;;;;;5056058;28;20475;-84
2023/08/27 02:42:04;;;;;;;4.10;3.20;;;18.00;99.90;;;;;;5056024;28;20491;-83
2023/08/27 02:44:31;;;;;;;4.77;3.20;;;18.00;99.90;;;;;;5056061;28;20761;-83
2023/08/27 02:46:59;;;;;;;5.37;3.43;;;18.00;99.90;;;;;;5055466;28;20445;-83
2023/08/27 02:49:26;;;;;;;5.33;3.60;;;18.00;99.90;;;;;;5055511;28;20491;-83
2023/08/27 02:51:54;;;;;;;4.60;2.90;;;18.00;99.90;;;;;;5055444;28;20441;-84
2023/08/27 02:54:21;;;;;;;5.23;3.07;;;18.00;99.90;;;;;;5055475;28;20437;-83
2023/08/27 02:56:48;;;;;;;4.63;4.17;;;18.00;99.90;;;;;;5055261;28;20947;-83
2023/08/27 02:59:16;;;;;;;3.77;2.70;;;18.00;99.90;;;;;;5055821;28;20526;-84
2023/08/27 03:01:43;;;;;;;5.07;3.10;;;18.00;99.90;;;;;;5055368;28;20469;-84
2023/08/27 03:04:12;;;;;;;5.03;2.80;;;18.00;99.90;;;;;;5055243;28;20437;-84
2023/08/27 03:06:39;;;;;;;5.00;3.40;;;18.00;99.90;;;;;;5055187;28;20433;-83
2023/08/27 03:09:06;;;;;;;6.60;3.70;;;18.00;99.90;;;;;;5055215;28;20446;-84
2023/08/27 03:11:33;;;;;;;5.80;3.97;;;18.00;99.90;;;;;;5055407;28;20445;-84
2023/08/27 03:14:00;;;;;;;8.20;3.53;;;18.00;99.90;;;;;;5054973;28;20473;-84
2023/08/27 03:16:27;;;;;;;7.10;3.60;;;18.10;99.90;;;;;;5055099;28;20438;-84
2023/08/27 03:18:57;;;;;;;5.17;3.00;;;18.10;99.90;;;;;;5055246;28;20825;-84
2023/08/27 03:21:25;;;;;;;4.10;3.07;;;18.10;99.90;;;;;;5055352;28;20487;-85
2023/08/27 03:23:57;;;;;;;5.90;3.70;;;18.10;99.90;;;;;;5061466;28;20436;-85
2023/08/27 03:26:24;;;;;;;4.90;2.87;;;18.00;99.90;;;;;;5075209;28;20417;-85
2023/08/27 03:28:52;;;;;;;4.90;3.13;;;18.10;99.90;;;;;;5075139;28;20903;-83
2023/08/27 03:31:23;;;;;;;7.90;3.77;;;18.10;99.90;;;;;;5075177;28;20793;-83
2023/08/27 03:33:52;;;;;;;5.33;3.27;;;18.00;99.90;;;;;;5074617;28;20460;-83
2023/08/27 03:36:20;;;;;;;4.93;3.33;;;18.00;99.90;;;;;;5074593;28;20425;-83
2023/08/27 03:38:48;;;;;;;5.63;3.10;;;18.00;99.90;;;;;;5074946;28;20432;-83
2023/08/27 03:41:15;;;;;;;10.63;3.90;;;18.00;99.90;;;;;;5074492;28;20437;-83
2023/08/27 03:43:42;;;;;;;6.13;4.17;;;18.10;99.90;;;;;;5074519;28;20904;-83
2023/08/27 03:46:11;;;;;;;4.20;3.30;;;18.10;99.90;;;;;;5073745;28;20436;-83
2023/08/27 03:48:38;;;;;;;5.10;3.60;;;18.10;99.90;;;;;;5074670;28;20501;-84
2023/08/27 03:51:10;;;;;;;5.70;3.17;;;18.10;99.90;;;;;;5074416;28;20769;-83
2023/08/27 03:53:37;;;;;;;4.30;3.30;;;18.10;99.90;;;;;;5074559;28;20468;-83
2023/08/27 03:56:09;;;;;;;4.73;3.00;;;18.10;99.90;;;;;;5066094;28;20503;-83
2023/08/27 03:58:36;;;;;;;3.97;3.17;;;18.10;99.90;;;;;;5054330;28;20538;-83
2023/08/27 04:01:03;;;;;;;5.43;3.23;;;18.20;99.90;;;;;;5056239;28;20468;-83
2023/08/27 04:03:32;;;;;;;7.53;4.17;;;18.20;99.90;;;;;;5072970;28;20510;-83
2023/08/27 04:06:01;;;;;;;5.73;3.63;;;18.20;99.90;;;;;;5074128;28;20463;-84
2023/08/27 04:08:30;;;;;;;5.23;3.47;;;18.10;99.90;;;;;;5073953;28;20941;-83
2023/08/27 04:11:02;;;;;;;4.40;3.03;;;18.10;99.90;;;;;;5073906;28;20979;-83
2023/08/27 04:13:33;;;;;;;7.27;3.40;;;18.10;99.90;;;;;;5073877;28;20464;-83
2023/08/27 04:16:04;;;;;;;5.20;3.10;;;18.10;99.90;;;;;;5074248;28;20482;-83
2023/08/27 04:18:32;;;;;;;4.80;3.00;;;18.20;99.90;;;;;;5073678;28;20454;-83
2023/08/27 04:21:04;;;;;;;5.17;3.23;;;18.10;99.90;;;;;;5074046;28;20512;-83
2023/08/27 04:23:33;;;;;;;4.70;2.43;;;18.10;99.90;;;;;;5070472;28;20494;-84
2023/08/27 04:26:03;;;;;;;5.80;3.60;;;18.10;99.90;;;;;;5053916;28;20863;-84
2023/08/27 04:28:36;;;;;;;4.10;2.73;;;18.10;99.90;;;;;;5053735;28;20468;-83
2023/08/27 04:31:05;;;;;;;5.87;3.00;;;18.10;99.90;;;;;;5053608;28;20475;-83
2023/08/27 04:33:33;;;;;;;4.73;3.43;;;18.10;99.90;;;;;;5053326;28;20563;-84
2023/08/27 04:36:00;;;;;;;6.93;3.90;;;18.10;99.90;;;;;;5053789;28;20443;-84
2023/08/27 04:38:27;;;;;;;8.60;4.10;;;18.10;99.90;;;;;;5053667;28;20442;-84
2023/08/27 04:40:54;;;;;;;6.10;3.70;;;18.10;99.90;;;;;;5053430;28;20448;-82
2023/08/27 04:43:21;;;;;;;7.37;4.53;;;18.00;99.90;;;;;;5053309;28;20442;-82
2023/08/27 04:45:50;;;;;;;5.60;3.23;;;18.00;99.90;;;;;;5050087;28;20461;-82
2023/08/27 04:48:18;;;;;;;5.20;3.20;;;18.00;99.90;;;;;;5050016;28;20531;-82
2023/08/27 04:50:46;;;;;;;4.73;4.10;;;18.10;99.90;;;;;;5049900;28;20927;-82
2023/08/27 04:53:13;;;;;;;4.33;3.50;;;18.00;99.90;;;;;;5051698;28;20531;-82
2023/08/27 04:55:45;;;;;;;6.73;3.33;;;18.00;99.90;;;;;;5051799;28;20446;-82
2023/08/27 04:58:15;;;;;;;5.20;3.60;;;18.00;99.90;;;;;;5050494;28;20473;-82
2023/08/27 05:00:54;;;;;;;5.63;3.30;;;18.00;99.90;;;;;;5052039;28;20794;-83
2023/08/27 05:03:22;;;;;;;4.43;2.57;;;18.00;99.90;;;;;;5051433;28;20794;-82
2023/08/27 05:05:53;;;;;;;3.77;2.67;;;18.00;99.90;;;;;;5051328;28;20969;-83
2023/08/27 05:08:21;;;;;;;4.07;2.63;;;18.10;99.90;;;;;;5051771;28;20425;-83
2023/08/27 05:10:48;;;;;;;5.40;3.60;;;18.10;99.90;;;;;;5051639;28;20469;-84
2023/08/27 05:13:16;;;;;;;5.17;3.17;;;18.10;99.90;;;;;;5051251;28;20568;-84
2023/08/27 05:15:43;;;;;;;5.93;3.03;;;18.10;99.90;;;;;;5051260;28;20528;-83
2023/08/27 05:18:11;;;;;;;4.27;2.97;;;18.10;99.90;;;;;;5051108;28;20441;-83
2023/08/27 05:20:39;;;;;;;4.83;3.33;;;18.10;99.90;;;;;;5050991;28;20530;-82
2023/08/27 05:23:06;;;;;;;4.40;3.20;;;18.10;99.90;;;;;;5051329;28;20487;-84
2023/08/27 05:25:34;;;;;;;7.00;3.20;;;18.20;99.90;;;;;;5051503;28;20437;-84
2023/08/27 05:28:01;;;;;;;5.30;3.40;;;18.20;99.90;;;;;;5051567;28;20851;-84
2023/08/27 05:30:28;;;;;;;4.63;3.23;;;18.20;99.90;;;;;;5050649;28;20490;-84
2023/08/27 05:32:55;;;;;;;6.27;4.20;;;18.10;99.90;;;;;;5051364;28;20566;-85
2023/08/27 05:35:24;;;;;;;5.20;3.53;;;18.20;99.90;;;;;;5051556;28;20449;-85
2023/08/27 05:37:51;;;;;;;4.40;2.63;;;18.20;99.90;;;;;;5051407;28;20824;-85
2023/08/27 05:40:18;;;;;;;5.00;2.73;;;18.10;99.90;;;;;;5050477;28;20495;-85
2023/08/27 05:42:45;;;;;;;6.63;3.33;;;18.10;99.90;;;;;;5050851;28;20492;-85
2023/08/27 05:45:12;;;;;;;4.40;3.07;;;18.10;99.90;;;;;;5049812;28;20441;-85
2023/08/27 05:47:39;;;;;;;5.53;3.50;;;18.10;99.90;;;;;;5050899;28;20461;-85
2023/08/27 05:50:07;;;;;;;4.53;2.97;;;18.10;99.90;;;;;;5050764;28;20464;-85
2023/08/27 05:52:35;;;;;;;5.10;2.77;;;18.20;99.90;;;;;;5051191;28;20495;-84
2023/08/27 05:55:02;;;;;;;5.20;3.50;;;18.20;99.90;;;;;;5051754;28;20614;-84
2023/08/27 05:57:29;;;;;;;6.00;2.83;;;18.10;99.90;;;;;;5051224;28;20846;-83
2023/08/27 05:59:56;;;;;;;4.00;2.90;;;18.20;99.90;;;;;;5049568;28;20425;-84
2023/08/27 06:02:24;;;;;;;6.30;2.93;;;18.20;99.90;;;;;;5050368;28;20438;-84
2023/08/27 06:04:51;;;;;;;4.20;2.63;;;18.30;99.90;;;;;;5050903;28;20444;-83
2023/08/27 06:07:18;;;;;;;3.97;2.73;;;18.30;99.90;;;;;;5045861;28;20448;-83
2023/08/27 06:09:46;;;;;;;6.03;4.10;;;18.30;99.90;;;;;;5051006;28;20499;-83
2023/08/27 06:12:13;;;;;;;6.43;3.20;;;18.30;99.90;;;;;;5053701;28;20438;-84
2023/08/27 06:14:40;;;;;;;3.13;1.90;;;18.30;99.90;;;;;;5053925;28;20547;-83
2023/08/27 06:17:07;;;;;;;3.20;1.60;;;18.30;99.90;;;;;;5053688;28;20437;-83
2023/08/27 06:19:34;;;;;;;2.73;1.23;;;18.30;99.90;;;;;;5051633;28;20434;-85
2023/08/27 06:22:01;;;;;;;2.30;1.27;;;18.30;99.90;;;;;;5054081;28;20896;-85
2023/08/27 06:24:27;;;;;;;2.70;1.57;;;18.30;99.90;;;;;;5053994;28;20446;-84
2023/08/27 06:26:56;;;;;;;3.33;1.10;;;18.30;99.90;;;;;;5053679;28;20487;-82
2023/08/27 06:29:23;;;;;;;2.80;1.37;;;18.30;99.90;;;;;;5053260;28;20495;-84
2023/08/27 06:31:50;;;;;;;2.53;0.90;;;18.40;99.90;;;;;;5053619;28;20491;-84
2023/08/27 06:34:17;;;;;;;2.30;1.00;;;18.40;99.90;;;;;;5053271;28;20534;-83
2023/08/27 06:36:44;;;;;;;2.40;1.23;;;18.40;99.90;;;;;;5053811;28;20468;-83
2023/08/27 06:39:11;;;;;;;2.50;1.20;;;18.40;99.90;;;;;;5053457;28;20433;-84
2023/08/27 06:41:38;;;;;;;3.10;1.30;;;18.40;99.90;;;;;;5055230;28;20441;-83
2023/08/27 06:44:06;;;;;;;2.37;1.10;;;18.40;99.90;;;;;;5055109;28;20863;-83
2023/08/27 06:46:51;;;;;;;2.20;0.90;;;18.40;99.90;;;;;;5052881;28;20516;-83
2023/08/27 06:49:18;;;;;;;1.97;0.80;;;18.40;99.90;;;;;;5051214;28;20434;-82
2023/08/27 06:51:45;;;;;;;2.40;1.20;;;18.40;99.90;;;;;;5048246;28;20430;-85
2023/08/27 06:54:13;;;;;;;3.03;1.07;;;18.40;99.90;;;;;;5053002;28;20476;-85
2023/08/27 06:56:40;;;;;;;3.57;1.20;;;18.40;99.90;;;;;;5052309;28;20795;-85
2023/08/27 06:59:11;;;;;;;2.60;1.10;;;18.40;99.90;;;;;;5052299;28;20465;-84
2023/08/27 07:01:39;;;;;;;2.07;0.90;;;18.40;99.90;;;;;;5053882;28;20453;-85
2023/08/27 07:04:06;;;;;;;2.90;1.10;;;18.40;99.90;;;;;;5052399;28;20491;-84
2023/08/27 07:06:34;;;;;;;2.20;1.17;;;18.40;99.90;;;;;;5052079;28;20919;-85
2023/08/27 07:09:04;;;;;;;2.93;1.27;;;18.40;99.90;;;;;;5052420;28;20453;-87
2023/08/27 07:11:31;;;;;;;3.83;1.17;;;18.50;99.90;;;;;;5052150;28;20836;-87
2023/08/27 07:13:58;;;;;;;2.40;1.10;;;18.50;99.90;;;;;;5052264;28;21028;-85
2023/08/27 07:16:27;;;;;;;2.00;0.90;;;18.50;99.90;;;;;;5052309;28;20426;-84
2023/08/27 07:18:54;;;;;;;2.30;1.00;;;18.50;99.90;;;;;;5051995;28;20998;-84
2023/08/27 07:21:22;;;;;;;2.80;1.13;;;18.50;99.90;;;;;;5050368;28;20787;-82
2023/08/27 07:23:49;;;;;;;2.30;1.00;;;18.50;99.90;;;;;;5052020;28;20506;-86
2023/08/27 07:26:16;;;;;;;2.50;1.20;;;18.50;99.90;;;;;;5048493;28;20787;-86
2023/08/27 07:28:42;;;;;;;3.07;0.80;;;18.60;99.90;;;;;;5051140;28;20754;-86
2023/08/27 07:31:09;;;;;;;2.73;1.20;;;18.60;99.90;;;;;;5051343;28;20441;-88
2023/08/27 07:33:38;;;;;;;3.33;1.57;;;18.50;99.90;;;;;;5051692;28;20507;-83
2023/08/27 07:36:05;;;;;;;3.37;1.30;;;18.40;99.90;;;;;;5051412;28;20572;-83
2023/08/27 07:38:32;;;;;;;2.93;1.40;;;18.40;99.90;;;;;;5051205;28;20441;-83
2023/08/27 07:40:59;;;;;;;3.83;1.27;;;18.40;99.90;;;;;;5052279;28;20526;-82
2023/08/27 07:43:26;;;;;;;3.23;1.10;;;18.40;99.90;;;;;;5052803;28;20480;-81
2023/08/27 07:45:56;;;;;;;2.40;1.00;;;18.50;99.90;;;;;;5052940;28;20444;-82
2023/08/27 07:48:24;;;;;;;3.43;1.70;;;18.50;99.90;;;;;;5053444;28;20444;-82
2023/08/27 07:50:53;;;;;;;3.33;1.23;;;18.40;99.90;;;;;;5052055;28;20491;-82
2023/08/27 07:53:21;;;;;;;3.43;1.20;;;18.40;99.90;;;;;;5051721;28;20437;-80
2023/08/27 07:55:48;;;;;;;2.33;1.10;;;18.40;99.90;;;;;;5051543;28;20442;-82
2023/08/27 07:58:16;;;;;;;2.27;1.10;;;18.50;99.90;;;;;;5051936;28;20469;-83
2023/08/27 08:00:43;;;;;;;2.30;1.20;;;18.50;99.90;;;;;;5052404;28;20433;-83
2023/08/27 08:03:10;;;;;;;3.80;1.23;;;18.60;99.90;;;;;;5054605;28;20429;-82
2023/08/27 08:05:37;;;;;;;2.83;1.20;;;18.80;99.90;;;;;;5052160;28;20450;-83
2023/08/27 08:08:07;;;;;;;5.33;1.23;;;19.00;99.90;;;;;;5052043;28;20441;-83
2023/08/27 08:10:35;;;;;;;2.53;1.33;;;19.30;99.90;;;;;;5052700;28;20491;-83
2023/08/27 08:13:05;;;;;;;2.50;0.97;;;19.70;99.30;;;;;;5047433;28;20920;-82
2023/08/27 08:15:34;;;;;;;2.97;1.17;;;19.90;97.30;;;;;;5051555;28;20525;-83
2023/08/27 08:18:02;;;;;;;2.97;1.20;;;20.00;96.80;;;;;;5051623;28;20444;-83
2023/08/27 08:20:29;;;;;;;2.40;1.13;;;20.00;96.80;;;;;;5051166;28;20445;-83
2023/08/27 08:22:56;;;;;;;3.10;1.70;;;20.00;96.60;;;;;;5051259;28;20496;-83
2023/08/27 08:25:27;;;;;;;3.73;1.23;;;20.00;96.60;;;;;;5051245;28;20468;-83
2023/08/27 08:27:54;;;;;;;2.87;1.10;;;20.00;97.00;;;;;;5051237;28;20483;-83
2023/08/27 08:30:22;;;;;;;2.50;1.00;;;20.00;97.00;;;;;;5047189;28;20466;-83
2023/08/27 08:32:49;;;;;;;2.60;1.10;;;20.00;96.30;;;;;;5050675;28;21021;-82
2023/08/27 08:35:17;;;;;;;2.50;1.10;;;20.00;96.50;;;;;;5052003;28;20484;-82
2023/08/27 08:37:45;;;;;;;3.17;1.23;;;20.00;97.60;;;;;;5050954;28;20923;-82
2023/08/27 08:40:14;;;;;;;2.33;0.90;;;19.90;98.00;;;;;;5051542;28;20452;-83
2023/08/27 08:42:49;;;;;;;5.43;1.07;;;19.80;98.50;;;;;;5051485;28;20449;-83
2023/08/27 08:45:24;;;;;;;2.50;0.90;;;19.90;98.60;;;;;;5051080;28;20471;-82
2023/08/27 08:47:56;;;;;;;2.50;1.00;;;19.90;98.80;;;;;;5051196;28;20444;-83
2023/08/27 08:50:25;;;;;;;1.90;0.70;;;19.90;98.40;;;;;;5051296;28;20433;-82
2023/08/27 08:52:57;;;;;;;2.40;0.80;;;20.00;98.40;;;;;;5051431;28;20430;-82
2023/08/27 08:55:28;;;;;;;2.73;0.83;;;20.00;98.80;;;;;;5051321;28;20477;-83
2023/08/27 08:58:04;;;;;;;2.10;0.73;;;20.00;98.60;;;;;;5051228;28;20485;-82
2023/08/27 09:00:36;;;;;;;2.20;1.00;;;20.00;98.80;;;;;;5048801;28;21284;-83
2023/08/27 09:03:07;;;;;;;2.40;1.00;;;20.00;98.20;;;;;;5050062;28;20426;-83
2023/08/27 09:05:36;;;;;;;2.40;0.80;;;19.90;98.40;;;;;;5051152;28;20937;-82
2023/08/27 09:08:05;;;;;;;2.30;0.77;;;19.80;97.90;;;;;;5051028;28;20433;-83
2023/08/27 09:10:33;;;;;;;1.83;0.60;;;19.80;98.30;;;;;;5051313;28;20544;-83
2023/08/27 09:13:06;;;;;;;2.00;0.70;;;19.70;98.30;;;;;;5050984;28;20459;-83
2023/08/27 09:15:33;;;;;;;2.47;0.80;;;19.70;98.40;;;;;;5051148;28;20539;-83
2023/08/27 09:18:00;;;;;;;2.57;0.93;;;19.70;99.10;;;;;;5050924;28;20440;-83
2023/08/27 09:20:28;;;;;;;2.43;0.90;;;19.70;99.70;;;;;;5050308;28;20457;-83
2023/08/27 09:22:55;;;;;;;2.27;0.80;;;19.80;99.90;;;;;;5049949;28;20451;-83
2023/08/27 09:25:22;;;;;;;2.43;1.00;;;19.90;99.70;;;;;;5050691;28;20464;-84
2023/08/27 09:27:49;;;;;;;2.00;0.70;;;19.90;99.40;;;;;;5049880;28;20437;-83
2023/08/27 09:30:19;;;;;;;1.80;0.63;;;19.90;98.80;;;;;;5052057;28;20863;-83
2023/08/27 09:32:47;;;;;;;2.00;0.80;;;19.90;98.20;;;;;;5051029;28;20930;-83
2023/08/27 09:35:14;;;;;;;1.90;0.60;;;19.90;97.80;;;;;;5054351;28;20480;-83
2023/08/27 09:37:47;;;;;;;2.30;1.40;;;20.00;97.80;;;;;;5049920;28;20443;-82
2023/08/27 09:40:16;;;;;;;2.47;0.90;;;20.10;97.90;;;;;;5046900;28;20441;-84
2023/08/27 09:42:44;;;;;;;2.20;0.80;;;20.10;97.00;;;;;;5049491;28;20441;-82
2023/08/27 09:45:11;;;;;;;3.17;0.70;;;20.00;97.50;;;;;;5053807;28;20448;-83
2023/08/27 09:47:41;;;;;;;1.97;0.90;;;20.00;97.60;;;;;;5049969;28;20433;-84
2023/08/27 09:50:15;;;;;;;2.40;0.93;;;20.00;97.20;;;;;;5054789;28;20445;-84
2023/08/27 09:52:44;;;;;;;3.53;0.93;;;19.90;96.60;;;;;;5052349;28;20513;-83
2023/08/27 09:55:14;;;;;;;3.10;0.90;;;19.80;96.10;;;;;;5055467;28;20573;-84
2023/08/27 09:57:49;;;;;;;3.00;0.80;;;19.60;96.80;;;;;;5054677;28;20497;-92
2023/08/27 10:00:19;;;;;;;6.07;1.10;;;19.60;96.70;;;;;;5053822;28;20429;-85
2023/08/27 10:02:51;;;;;;;4.03;1.10;;;19.60;96.60;;;;;;5054087;28;20463;-85
2023/08/27 10:05:18;;;;;;;1.97;0.90;;;19.50;97.30;;;;;;5053857;28;21210;-85
2023/08/27 10:07:56;;;;;;;2.80;0.90;;;19.50;96.70;;;;;;5053953;28;20495;-84
2023/08/27 10:10:23;;;;;;;3.03;0.97;;;19.40;95.70;;;;;;5047480;28;20467;-87
2023/08/27 10:12:51;;;;;;;2.47;1.10;;;19.30;95.80;;;;;;5054603;28;20425;-85
2023/08/27 10:15:19;;;;;;;2.27;0.80;;;19.20;96.70;;;;;;5053444;28;20574;-86
2023/08/27 10:17:47;;;;;;;5.03;1.10;;;19.10;97.30;;;;;;5054305;28;20498;-87
2023/08/27 10:20:18;;;;;;;3.33;1.07;;;19.10;97.20;;;;;;5054112;28;20465;-86
2023/08/27 10:22:46;;;;;;;2.87;0.90;;;19.00;97.40;;;;;;5053859;28;20939;-84
2023/08/27 10:25:18;;;;;;;2.60;1.30;;;19.00;98.00;;;;;;5048990;28;20842;-87
2023/08/27 10:27:48;;;;;;;3.30;1.00;;;19.00;99.00;;;;;;5053883;28;20433;-86
2023/08/27 10:30:16;;;;;;;3.33;1.10;;;19.00;98.40;;;;;;5053620;28;20468;-85
2023/08/27 10:32:44;;;;;;;2.53;1.07;;;19.00;97.80;;;;;;5054900;28;20466;-86
2023/08/27 10:35:12;;;;;;;2.20;0.80;;;19.00;98.80;;;;;;5051780;28;20520;-85
2023/08/27 10:37:45;;;;;;;2.60;0.80;;;19.00;99.40;;;;;;5053977;28;20765;-85
2023/08/27 10:40:15;;;;;;;2.47;1.00;;;19.00;98.40;;;;;;5049539;28;20425;-86
2023/08/27 10:42:43;;;;;;;3.70;1.10;;;19.00;98.10;;;;;;5053610;28;20457;-89
2023/08/27 10:45:21;;;;;;;2.27;1.00;;;18.90;98.20;;;;;;5054109;28;20441;-86
2023/08/27 10:48:07;;;;;;;2.53;0.90;;;18.90;97.60;;;;;;5049205;28;20437;-88
2023/08/27 10:50:49;;;;;;;3.23;0.93;;;18.90;97.60;;;;;;5054434;28;20487;-86
2023/08/27 10:53:16;;;;;;;2.27;0.70;;;18.90;97.00;;;;;;5054224;28;20440;-86
2023/08/27 10:55:49;;;;;;;2.80;0.90;;;18.90;97.10;;;;;;5052518;28;20477;-88
2023/08/27 10:58:17;;;;;;;3.00;0.97;;;18.90;96.90;;;;;;5052996;28;20516;-87
2023/08/27 11:01:04;;;;;;;5.80;1.17;;;18.90;96.50;;;;;;5053299;28;20482;-86
2023/08/27 11:03:57;;;;;;;3.27;0.70;;;18.80;97.20;;;;;;5052953;28;20417;-87
2023/08/27 11:06:40;;;;;;;2.13;0.83;;;18.80;97.30;;;;;;5052792;28;20911;-85
2023/08/27 11:09:18;;;;;;;1.90;0.60;;;18.70;97.40;;;;;;5052777;28;20437;-88
2023/08/27 11:11:47;;;;;;;2.80;1.20;;;18.70;97.60;;;;;;5052546;28;20495;-86
2023/08/27 11:14:16;;;;;;;2.40;1.23;;;18.70;97.60;;;;;;5048875;28;20520;-88
2023/08/27 11:16:48;;;;;;;2.17;0.93;;;18.70;98.30;;;;;;5052870;28;20434;-89
2023/08/27 11:19:25;;;;;;;3.30;1.20;;;18.70;98.80;;;;;;5051915;28;20518;-85
2023/08/27 11:22:04;;;;;;;2.17;0.90;;;18.80;98.50;;;;;;5050225;28;20421;-89
2023/08/27 11:24:32;;;;;;;2.20;0.77;;;18.90;98.20;;;;;;5037311;28;20533;-84
2023/08/27 11:27:02;;;;;;;1.93;0.80;;;18.90;98.70;;;;;;5048582;28;20448;-89
2023/08/27 11:29:30;;;;;;;1.80;0.60;;;18.90;98.00;;;;;;5050802;28;20441;-89
2023/08/27 11:32:00;;;;;;;2.00;0.60;;;18.90;98.40;;;;;;5049277;28;20434;-88
2023/08/27 11:34:35;;;;;;;2.63;0.97;;;19.00;99.20;;;;;;5050476;28;20491;-89
2023/08/27 11:37:04;;;;;;;3.40;1.10;;;19.00;97.70;;;;;;5048354;28;20437;-86
2023/08/27 11:39:31;;;;;;;2.80;1.30;;;19.00;97.90;;;;;;5050454;28;20445;-86
2023/08/27 11:41:59;;;;;;;1.90;0.60;;;19.10;98.70;;;;;;5050018;28;20527;-87
2023/08/27 11:44:26;;;;;;;2.80;1.00;;;19.20;98.70;;;;;;5050595;28;20437;-88
2023/08/27 11:46:53;;;;;;;2.37;0.77;;;19.40;99.00;;;;;;5048721;28;20496;-88
2023/08/27 11:49:30;;;;;;;1.97;0.70;;;19.50;98.10;;;;;;5050380;28;20433;-87
2023/08/27 11:51:58;;;;;;;2.47;0.90;;;19.50;97.10;;;;;;5048186;28;20430;-86
2023/08/27 11:54:31;;;;;;;1.90;0.70;;;19.50;96.30;;;;;;5052220;28;20442;-86
2023/08/27 11:56:58;;;;;;;2.10;0.77;;;19.40;95.20;;;;;;5050818;28;20418;-88
2023/08/27 11:59:28;;;;;;;2.27;0.80;;;19.30;95.40;;;;;;5052100;28;20465;-87
2023/08/27 12:01:56;;;;;;;2.10;0.70;;;19.20;95.70;;;;;;5051593;28;20469;-87
2023/08/27 12:04:24;;;;;;;2.97;0.77;;;19.20;97.00;;;;;;5048790;28;20480;-88
2023/08/27 12:06:52;;;;;;;2.23;0.70;;;19.20;96.90;;;;;;5050747;28;20498;-87
2023/08/27 12:09:24;;;;;;;2.47;1.10;;;19.20;96.90;;;;;;5053948;28;20772;-85
2023/08/27 12:11:52;;;;;;;2.40;0.77;;;19.20;97.60;;;;;;5050583;28;20423;-85
2023/08/27 12:14:24;;;;;;;2.30;1.00;;;19.20;98.10;;;;;;5054318;28;20437;-84
2023/08/27 12:16:54;;;;;;;3.30;0.93;;;19.20;97.80;;;;;;5053145;28;20543;-87
2023/08/27 12:19:26;;;;;;;3.30;0.97;;;19.10;98.40;;;;;;5049606;28;20437;-82
2023/08/27 12:21:57;;;;;;;2.10;0.70;;;19.10;98.80;;;;;;5051140;28;20571;-87
2023/08/27 12:24:31;;;;;;;2.00;0.70;;;19.00;98.10;;;;;;5051749;28;20449;-85
2023/08/27 12:27:03;;;;;;;4.23;1.00;;;19.00;97.70;;;;;;5051647;28;20437;-90
2023/08/27 12:29:37;;;;;;;7.20;0.93;;;18.90;97.70;;;;;;5052998;28;20457;-87
2023/08/27 12:32:14;;;;;;;3.17;1.03;;;18.80;98.50;;;;;;5051994;28;20487;-86
2023/08/27 12:34:45;;;;;;;2.60;1.00;;;18.80;98.30;;;;;;5050748;28;20626;-85
2023/08/27 12:37:19;;;;;;;2.23;0.70;;;18.80;98.40;;;;;;5051558;28;20499;-86
2023/08/27 12:39:47;;;;;;;2.10;0.90;;;18.80;99.00;;;;;;5047213;28;20457;-86
2023/08/27 12:42:19;;;;;;;2.47;0.77;;;18.70;99.40;;;;;;5050897;28;21210;-86
2023/08/27 12:44:46;;;;;;;2.47;0.90;;;18.80;98.90;;;;;;5050699;28;20451;-84
2023/08/27 12:47:14;;;;;;;2.70;1.20;;;18.70;99.20;;;;;;5050028;28;20539;-85
2023/08/27 12:49:43;;;;;;;1.93;0.80;;;18.70;99.80;;;;;;5044620;28;20436;-85
2023/08/27 12:52:11;;;;;;;3.63;1.00;;;18.70;99.90;;;;;;5047893;28;20461;-85
2023/08/27 12:54:42;;;;;;;3.30;0.80;;;18.60;99.90;;;;;;5050687;28;20484;-84
2023/08/27 12:57:10;;;;;;;2.20;0.80;;;18.70;99.70;;;;;;5045423;28;20859;-85